createdAt,value
2018-12-31T00:01:43.670Z,11.43
2018-12-31T00:04:12.876Z,12.73
2018-12-31T00:06:42.051Z,12.20
2018-12-31T00:09:11.253Z,11.13
2018-12-31T00:11:40.580Z,11.37
2018-12-31T00:14:09.840Z,11.43
2018-12-31T00:16:39.100Z,11.30
2018-12-31T00:19:08.269Z,11.27
2018-12-31T00:21:37.526Z,11.83
2018-12-31T00:24:06.844Z,12.00
2018-12-31T00:26:36.027Z,11.20
2018-12-31T00:29:05.266Z,10.90
2018-12-31T00:31:34.445Z,10.97
2018-12-31T00:34:03.634Z,11.67
2018-12-31T00:36:32.818Z,11.30
2018-12-31T00:39:02.021Z,11.43
2018-12-31T00:41:31.371Z,11.73
2018-12-31T00:44:00.603Z,11.87
2018-12-31T00:46:29.754Z,11.73
2018-12-31T00:48:58.963Z,11.00
2018-12-31T00:51:28.347Z,11.13
2018-12-31T00:53:57.616Z,11.97
2018-12-31T00:56:26.908Z,11.80
2018-12-31T00:58:56.071Z,11.63
2018-12-31T01:01:25.267Z,11.10
2018-12-31T01:03:54.439Z,11.83
2018-12-31T01:06:23.591Z,11.63
2018-12-31T01:08:52.772Z,12.10
2018-12-31T01:11:22.019Z,12.77
2018-12-31T01:13:51.262Z,10.57
2018-12-31T01:16:20.489Z,11.33
2018-12-31T01:18:49.677Z,10.93
2018-12-31T01:21:18.973Z,10.90
2018-12-31T01:23:48.242Z,11.93
2018-12-31T01:26:17.427Z,11.03
2018-12-31T01:28:46.593Z,10.57
2018-12-31T01:31:15.911Z,11.37
2018-12-31T01:33:45.086Z,12.47
2018-12-31T01:36:14.235Z,11.57
2018-12-31T01:38:43.383Z,11.70
2018-12-31T01:41:12.582Z,10.67
2018-12-31T01:43:41.853Z,10.83
2018-12-31T01:46:11.060Z,10.90
2018-12-31T01:48:40.306Z,10.23
2018-12-31T01:51:11.515Z,10.70
2018-12-31T01:53:40.423Z,10.83
2018-12-31T01:56:09.598Z,11.77
2018-12-31T01:58:38.776Z,10.30
2018-12-31T02:01:08.022Z,10.17
2018-12-31T02:03:37.249Z,10.00
2018-12-31T02:06:06.427Z,10.87
2018-12-31T02:08:35.648Z,11.03
2018-12-31T02:11:04.914Z,10.57
2018-12-31T02:13:34.054Z,11.03
2018-12-31T02:16:03.322Z,11.93
2018-12-31T02:18:32.526Z,11.13
2018-12-31T02:21:01.741Z,10.70
2018-12-31T02:23:30.862Z,10.77
2018-12-31T02:26:00.048Z,11.23
2018-12-31T02:28:29.265Z,11.63
2018-12-31T02:30:59.656Z,10.40
2018-12-31T02:33:28.862Z,10.63
2018-12-31T02:35:58.017Z,10.70
2018-12-31T02:38:27.266Z,10.83
2018-12-31T02:40:56.389Z,9.53
2018-12-31T02:43:25.545Z,11.87
2018-12-31T02:45:54.681Z,10.33
2018-12-31T02:48:23.882Z,11.40
2018-12-31T02:50:53.149Z,10.73
2018-12-31T02:53:22.372Z,10.80
2018-12-31T02:55:51.589Z,11.43
2018-12-31T02:58:20.732Z,11.80
2018-12-31T03:00:49.911Z,11.93
2018-12-31T03:03:19.153Z,11.20
2018-12-31T03:05:48.314Z,11.07
2018-12-31T03:08:17.543Z,11.37
2018-12-31T03:10:46.699Z,11.30
2018-12-31T03:13:15.936Z,10.97
2018-12-31T03:15:45.196Z,11.77
2018-12-31T03:18:14.447Z,10.57
2018-12-31T03:20:43.614Z,11.17
2018-12-31T03:23:12.870Z,11.87
2018-12-31T03:25:42.159Z,11.97
2018-12-31T03:28:11.286Z,11.47
2018-12-31T03:30:40.540Z,12.50
2018-12-31T03:33:09.761Z,11.90
2018-12-31T03:35:38.929Z,12.40
2018-12-31T03:38:08.078Z,11.47
2018-12-31T03:40:37.310Z,10.83
2018-12-31T03:43:06.451Z,13.20
2018-12-31T03:45:35.695Z,11.80
2018-12-31T03:48:05.022Z,12.80
2018-12-31T03:50:34.223Z,12.30
2018-12-31T03:53:03.373Z,13.10
2018-12-31T03:55:32.591Z,12.30
2018-12-31T03:58:03.282Z,12.70
2018-12-31T04:00:32.455Z,13.10
2018-12-31T04:03:01.697Z,13.37
2018-12-31T04:05:30.931Z,12.07
2018-12-31T04:08:00.057Z,12.97
2018-12-31T04:10:29.348Z,14.30
2018-12-31T04:12:58.531Z,12.67
2018-12-31T04:15:27.731Z,13.07
2018-12-31T04:17:57.008Z,13.50
2018-12-31T04:20:26.247Z,13.43
2018-12-31T04:22:55.435Z,13.33
2018-12-31T04:25:24.761Z,13.87
2018-12-31T04:27:54.070Z,13.67
2018-12-31T04:30:23.382Z,14.20
2018-12-31T04:32:52.689Z,13.90
2018-12-31T04:35:21.935Z,13.43
2018-12-31T04:37:51.198Z,13.47
2018-12-31T04:40:20.487Z,12.83
2018-12-31T04:42:49.654Z,13.67
2018-12-31T04:45:18.900Z,14.03
2018-12-31T04:47:48.032Z,13.27
2018-12-31T04:50:17.220Z,13.80
2018-12-31T04:52:46.370Z,14.40
2018-12-31T04:55:15.532Z,17.27
2018-12-31T04:57:44.776Z,13.97
2018-12-31T05:00:14.015Z,15.67
2018-12-31T05:02:43.154Z,14.23
2018-12-31T05:05:12.328Z,13.83
2018-12-31T05:07:41.482Z,13.50
2018-12-31T05:10:10.724Z,12.97
2018-12-31T05:12:39.878Z,14.27
2018-12-31T05:15:09.120Z,14.10
2018-12-31T05:17:38.419Z,13.87
2018-12-31T05:20:07.678Z,13.50
2018-12-31T05:22:37.000Z,14.30
2018-12-31T05:25:06.236Z,14.83
2018-12-31T05:27:35.558Z,14.33
2018-12-31T05:30:04.815Z,14.37
2018-12-31T05:32:34.018Z,14.20
2018-12-31T05:35:03.204Z,12.83
2018-12-31T05:37:32.501Z,14.57
2018-12-31T05:40:01.663Z,14.37
2018-12-31T05:42:30.884Z,14.27
2018-12-31T05:45:00.121Z,15.17
2018-12-31T05:47:29.355Z,15.77
2018-12-31T05:49:58.555Z,16.37
2018-12-31T05:52:27.709Z,15.73
2018-12-31T05:54:56.916Z,15.70
2018-12-31T05:57:26.121Z,15.17
2018-12-31T05:59:55.354Z,15.70
2018-12-31T06:02:24.591Z,16.03
2018-12-31T06:04:54.367Z,15.47
2018-12-31T06:07:23.515Z,15.33
2018-12-31T06:09:52.763Z,14.73
2018-12-31T06:12:21.923Z,14.67
2018-12-31T06:14:51.179Z,16.13
2018-12-31T06:17:20.402Z,16.13
2018-12-31T06:19:49.707Z,17.03
2018-12-31T06:22:18.915Z,18.23
2018-12-31T06:24:48.207Z,17.20
2018-12-31T06:27:17.419Z,16.80
2018-12-31T06:29:46.823Z,16.07
2018-12-31T06:32:15.987Z,15.97
2018-12-31T06:34:45.181Z,16.97
2018-12-31T06:37:14.412Z,17.80
2018-12-31T06:39:43.731Z,19.23
2018-12-31T06:42:12.902Z,17.73
2018-12-31T06:44:42.245Z,17.63
2018-12-31T06:47:11.409Z,18.30
2018-12-31T06:49:40.681Z,16.80
2018-12-31T06:52:09.885Z,16.37
2018-12-31T06:54:39.156Z,16.77
2018-12-31T06:57:08.307Z,17.90
2018-12-31T06:59:37.548Z,15.70
2018-12-31T07:02:06.705Z,16.23
2018-12-31T07:04:35.851Z,16.60
2018-12-31T07:07:05.072Z,16.97
2018-12-31T07:09:34.388Z,16.30
2018-12-31T07:12:03.536Z,17.43
2018-12-31T07:14:32.799Z,16.33
2018-12-31T07:17:02.054Z,17.07
2018-12-31T07:19:31.320Z,16.63
2018-12-31T07:22:00.718Z,16.97
2018-12-31T07:24:29.881Z,22.17
2018-12-31T07:26:59.046Z,17.07
2018-12-31T07:29:28.357Z,15.47
2018-12-31T07:31:57.541Z,15.43
2018-12-31T07:34:26.694Z,15.53
2018-12-31T07:36:55.936Z,16.30
2018-12-31T07:39:25.106Z,14.87
2018-12-31T07:41:54.252Z,15.40
2018-12-31T07:44:23.436Z,13.63
2018-12-31T07:46:52.686Z,12.87
2018-12-31T07:49:21.992Z,13.37
2018-12-31T07:51:51.136Z,14.00
2018-12-31T07:54:20.427Z,14.00
2018-12-31T07:56:49.587Z,13.97
2018-12-31T07:59:18.924Z,13.10
2018-12-31T08:01:48.186Z,12.83
2018-12-31T08:04:17.365Z,13.00
2018-12-31T08:06:46.632Z,14.03
2018-12-31T08:09:15.919Z,13.80
2018-12-31T08:11:45.212Z,12.97
2018-12-31T08:14:14.474Z,13.47
2018-12-31T08:16:43.705Z,12.90
2018-12-31T08:19:12.902Z,12.80
2018-12-31T08:21:42.208Z,13.87
2018-12-31T08:24:11.502Z,13.23
2018-12-31T08:26:40.694Z,14.03
2018-12-31T08:29:09.816Z,13.53
2018-12-31T08:31:39.069Z,11.77
2018-12-31T08:34:08.322Z,12.27
2018-12-31T08:36:37.485Z,12.90
2018-12-31T08:39:08.205Z,12.93
2018-12-31T08:41:37.437Z,13.40
2018-12-31T08:44:06.617Z,11.40
2018-12-31T08:46:35.836Z,11.67
2018-12-31T08:49:05.075Z,11.43
2018-12-31T08:51:34.307Z,11.47
2018-12-31T08:54:03.532Z,12.43
2018-12-31T08:56:32.713Z,12.17
2018-12-31T08:59:02.009Z,11.97
2018-12-31T09:01:31.250Z,11.47
2018-12-31T09:04:00.574Z,11.77
2018-12-31T09:06:29.798Z,11.67
2018-12-31T09:08:59.028Z,12.13
2018-12-31T09:11:28.283Z,11.80
2018-12-31T09:13:57.474Z,12.43
2018-12-31T09:16:26.716Z,15.00
2018-12-31T09:18:55.860Z,12.73
2018-12-31T09:21:25.023Z,13.90
2018-12-31T09:23:54.373Z,28.97
2018-12-31T09:26:23.565Z,15.90
2018-12-31T09:28:52.698Z,28.73
2018-12-31T09:31:21.886Z,13.13
2018-12-31T09:33:51.094Z,36.20
2018-12-31T09:36:20.246Z,22.93
2018-12-31T09:38:49.395Z,14.47
2018-12-31T09:41:18.564Z,28.53
2018-12-31T09:43:47.714Z,11.57
2018-12-31T09:46:16.966Z,31.60
2018-12-31T09:48:46.185Z,25.97
2018-12-31T09:51:15.376Z,17.10
2018-12-31T09:53:44.572Z,12.30
2018-12-31T09:56:13.754Z,11.10
2018-12-31T09:58:42.930Z,23.30
2018-12-31T10:01:12.114Z,11.63
2018-12-31T10:03:41.366Z,20.40
2018-12-31T10:06:10.658Z,12.33
2018-12-31T10:08:40.245Z,18.20
2018-12-31T10:11:09.382Z,12.53
2018-12-31T10:13:38.583Z,12.53
2018-12-31T10:16:07.762Z,12.10
2018-12-31T10:18:37.030Z,16.07
2018-12-31T10:21:06.331Z,10.93
2018-12-31T10:23:35.572Z,25.30
2018-12-31T10:26:05.006Z,11.50
2018-12-31T10:28:34.240Z,10.23
2018-12-31T10:31:03.407Z,14.73
2018-12-31T10:33:32.682Z,11.13
2018-12-31T10:36:01.867Z,28.90
2018-12-31T10:38:31.026Z,20.97
2018-12-31T10:41:00.240Z,16.57
2018-12-31T10:43:29.457Z,20.63
2018-12-31T10:45:58.640Z,69.43
2018-12-31T10:48:27.811Z,10.00
2018-12-31T10:50:56.981Z,11.43
2018-12-31T10:53:26.138Z,9.47
2018-12-31T10:55:55.341Z,14.93
2018-12-31T10:58:24.540Z,11.33
2018-12-31T11:00:53.801Z,26.53
2018-12-31T11:03:23.918Z,34.93
2018-12-31T11:05:53.216Z,13.47
2018-12-31T11:08:22.500Z,14.53
2018-12-31T11:10:51.734Z,20.60
2018-12-31T11:13:20.990Z,11.80
2018-12-31T11:15:50.342Z,8.70
2018-12-31T11:18:19.683Z,8.70
2018-12-31T11:20:49.097Z,41.57
2018-12-31T11:23:18.384Z,28.37
2018-12-31T11:25:47.679Z,19.53
2018-12-31T11:28:16.965Z,19.67
2018-12-31T11:30:46.140Z,26.80
2018-12-31T11:33:15.408Z,15.40
2018-12-31T11:35:44.596Z,28.17
2018-12-31T11:38:13.893Z,14.50
2018-12-31T11:40:43.126Z,23.13
2018-12-31T11:43:12.413Z,30.30
2018-12-31T11:45:41.682Z,10.67
2018-12-31T11:48:10.844Z,9.83
2018-12-31T11:50:39.987Z,8.87
2018-12-31T11:53:09.152Z,13.03
2018-12-31T11:55:38.438Z,12.20
2018-12-31T11:58:07.699Z,13.53
2018-12-31T12:00:36.956Z,8.07
2018-12-31T12:03:06.177Z,8.10
2018-12-31T12:05:35.375Z,11.30
2018-12-31T12:08:04.637Z,18.67
2018-12-31T12:10:33.835Z,7.57
2018-12-31T12:13:03.103Z,38.40
2018-12-31T12:15:32.394Z,27.67
2018-12-31T12:18:02.026Z,35.03
2018-12-31T12:20:31.345Z,12.43
2018-12-31T12:23:00.646Z,8.80
2018-12-31T12:25:29.952Z,11.17
2018-12-31T12:27:59.154Z,8.20
2018-12-31T12:30:28.579Z,6.77
2018-12-31T12:32:57.794Z,6.83
2018-12-31T12:35:26.982Z,7.10
2018-12-31T12:37:56.171Z,7.13
2018-12-31T12:40:25.452Z,6.60
2018-12-31T12:42:54.768Z,6.80
2018-12-31T12:45:24.105Z,10.00
2018-12-31T12:47:53.392Z,7.03
2018-12-31T12:50:22.565Z,7.00
2018-12-31T12:52:51.863Z,7.30
2018-12-31T12:55:21.178Z,6.97
2018-12-31T12:57:50.381Z,7.43
2018-12-31T13:00:19.577Z,7.83
2018-12-31T13:02:48.917Z,7.60
2018-12-31T13:05:18.175Z,7.43
2018-12-31T13:07:47.367Z,7.00
2018-12-31T13:10:16.708Z,7.87
2018-12-31T13:12:45.958Z,8.27
2018-12-31T13:15:15.482Z,7.13
2018-12-31T13:17:45.124Z,7.43
2018-12-31T13:20:14.476Z,27.60
2018-12-31T13:22:43.658Z,7.83
2018-12-31T13:25:12.936Z,8.13
2018-12-31T13:27:42.244Z,8.67
2018-12-31T13:30:11.820Z,8.43
2018-12-31T13:32:41.116Z,7.93
2018-12-31T13:35:10.302Z,8.63
2018-12-31T13:37:39.648Z,7.90
2018-12-31T13:40:08.877Z,8.33
2018-12-31T13:42:38.425Z,8.67
2018-12-31T13:45:07.800Z,8.03
2018-12-31T13:47:37.172Z,7.83
2018-12-31T13:50:06.489Z,7.93
2018-12-31T13:52:35.808Z,8.07
2018-12-31T13:55:05.380Z,8.30
2018-12-31T13:57:34.606Z,7.70
2018-12-31T14:00:03.902Z,8.53
2018-12-31T14:02:33.258Z,8.70
2018-12-31T14:05:02.478Z,8.40
2018-12-31T14:07:31.876Z,8.20
2018-12-31T14:10:01.158Z,8.93
2018-12-31T14:12:30.421Z,9.20
2018-12-31T14:14:59.616Z,9.57
2018-12-31T14:17:28.826Z,10.10
2018-12-31T14:19:58.226Z,9.97
2018-12-31T14:22:27.591Z,9.37
2018-12-31T14:24:56.884Z,9.40
2018-12-31T14:27:26.151Z,10.20
2018-12-31T14:29:55.612Z,9.70
2018-12-31T14:32:24.887Z,9.40
2018-12-31T14:34:54.164Z,9.57
2018-12-31T14:37:23.407Z,9.33
2018-12-31T14:39:52.699Z,15.60
2018-12-31T14:42:22.425Z,9.63
2018-12-31T14:44:51.764Z,9.50
2018-12-31T14:47:21.019Z,9.60
2018-12-31T14:49:50.314Z,14.03
2018-12-31T14:52:19.950Z,17.13
2018-12-31T14:54:49.594Z,11.33
2018-12-31T14:57:18.862Z,10.60
2018-12-31T14:59:48.233Z,10.17
2018-12-31T15:02:17.518Z,51.13
2018-12-31T15:04:46.749Z,15.43
2018-12-31T15:07:16.113Z,12.07
2018-12-31T15:09:45.466Z,10.37
2018-12-31T15:12:14.788Z,10.97
2018-12-31T15:14:43.965Z,9.67
2018-12-31T15:17:13.203Z,10.10
2018-12-31T15:19:42.378Z,13.20
2018-12-31T15:22:11.614Z,13.80
2018-12-31T15:24:40.774Z,10.87
2018-12-31T15:27:10.012Z,11.00
2018-12-31T15:29:39.312Z,11.63
2018-12-31T15:32:08.666Z,10.83
2018-12-31T15:34:37.848Z,11.77
2018-12-31T15:37:07.121Z,11.87
2018-12-31T15:39:36.370Z,11.77
2018-12-31T15:42:05.618Z,12.23
2018-12-31T15:44:34.881Z,12.07
2018-12-31T15:47:04.184Z,13.77
2018-12-31T15:49:33.433Z,12.33
2018-12-31T15:52:02.872Z,11.60
2018-12-31T15:54:32.078Z,11.17
2018-12-31T15:57:01.378Z,11.67
2018-12-31T15:59:30.675Z,12.43
2018-12-31T16:01:59.983Z,11.07
2018-12-31T16:04:29.172Z,12.67
2018-12-31T16:06:58.462Z,12.27
2018-12-31T16:09:27.682Z,11.73
2018-12-31T16:11:56.894Z,12.00
2018-12-31T16:14:26.192Z,12.67
2018-12-31T16:16:55.413Z,12.67
2018-12-31T16:19:24.728Z,11.77
2018-12-31T16:21:54.026Z,12.20
2018-12-31T16:24:23.280Z,12.23
2018-12-31T16:26:52.528Z,12.87
2018-12-31T16:29:21.810Z,12.80
2018-12-31T16:31:51.118Z,13.67
2018-12-31T16:34:20.337Z,12.43
2018-12-31T16:36:49.663Z,13.80
2018-12-31T16:39:18.970Z,13.77
2018-12-31T16:42:07.360Z,16.80
2018-12-31T16:44:37.479Z,14.13
2018-12-31T16:47:06.818Z,13.47
2018-12-31T16:49:36.078Z,13.57
2018-12-31T16:52:05.390Z,13.30
2018-12-31T16:54:34.973Z,12.93
2018-12-31T16:57:05.237Z,12.27
2018-12-31T16:59:34.694Z,13.57
2018-12-31T17:02:03.975Z,12.93
2018-12-31T17:04:33.162Z,13.33
2018-12-31T17:07:02.311Z,13.33
2018-12-31T17:09:31.618Z,13.57
2018-12-31T17:12:00.920Z,14.13
2018-12-31T17:14:30.158Z,14.37
2018-12-31T17:16:59.317Z,16.63
2018-12-31T17:19:28.954Z,23.43
2018-12-31T17:21:58.168Z,21.57
2018-12-31T17:24:27.603Z,21.57
2018-12-31T17:26:56.816Z,21.50
2018-12-31T17:29:26.098Z,18.83
2018-12-31T17:31:55.568Z,19.23
2018-12-31T17:34:24.830Z,17.27
2018-12-31T17:36:54.041Z,17.10
2018-12-31T17:39:23.401Z,18.77
2018-12-31T17:41:52.784Z,23.33
2018-12-31T17:44:22.331Z,23.57
2018-12-31T17:46:51.694Z,23.37
2018-12-31T17:49:20.997Z,20.23
2018-12-31T17:51:55.778Z,18.77
2018-12-31T17:54:21.239Z,18.33
2018-12-31T17:56:50.572Z,18.33
2018-12-31T17:59:19.756Z,16.33
2018-12-31T18:01:49.353Z,17.37
2018-12-31T18:04:18.686Z,17.57
2018-12-31T18:06:47.981Z,19.27
2018-12-31T18:09:17.226Z,19.40
2018-12-31T18:11:46.578Z,20.27
2018-12-31T18:14:15.829Z,21.17
2018-12-31T18:16:45.223Z,19.53
2018-12-31T18:19:14.547Z,19.17
2018-12-31T18:21:43.864Z,21.43
2018-12-31T18:24:13.017Z,20.53
2018-12-31T18:26:42.270Z,20.33
2018-12-31T18:29:11.627Z,20.33
2018-12-31T18:31:40.859Z,20.10
2018-12-31T18:34:10.017Z,24.80
2018-12-31T18:36:39.175Z,22.67
2018-12-31T18:39:08.832Z,23.90
2018-12-31T18:41:38.147Z,23.00
2018-12-31T18:44:07.477Z,30.60
2018-12-31T18:46:37.285Z,41.17
2018-12-31T18:49:06.711Z,44.90
2018-12-31T18:51:35.927Z,48.23
2018-12-31T18:54:05.310Z,54.95
2018-12-31T18:56:34.624Z,51.63
2018-12-31T18:59:03.959Z,114.20
2018-12-31T19:01:33.253Z,32.30
2018-12-31T19:04:02.506Z,30.47
2018-12-31T19:06:31.810Z,53.30
2018-12-31T19:09:01.116Z,111.77
2018-12-31T19:11:30.565Z,237.30
2018-12-31T19:13:59.851Z,55.07
2018-12-31T19:16:30.618Z,46.40
2018-12-31T19:19:00.155Z,61.20
2018-12-31T19:21:29.582Z,187.20
2018-12-31T19:23:58.929Z,61.13
2018-12-31T19:26:28.408Z,119.67
2018-12-31T19:28:57.704Z,35.53
2018-12-31T19:31:27.079Z,58.50
2018-12-31T19:33:56.375Z,127.67
2018-12-31T19:36:25.711Z,41.83
2018-12-31T19:38:54.902Z,39.07
2018-12-31T19:41:24.179Z,25.17
2018-12-31T19:43:53.538Z,25.47
2018-12-31T19:46:22.733Z,28.53
2018-12-31T19:48:52.031Z,28.80
2018-12-31T19:51:21.316Z,26.43
2018-12-31T19:53:50.658Z,24.47
2018-12-31T19:56:20.016Z,27.13
2018-12-31T19:58:49.234Z,27.00
2018-12-31T20:01:18.534Z,30.83
2018-12-31T20:03:47.841Z,32.63
2018-12-31T20:06:17.104Z,32.17
2018-12-31T20:08:46.433Z,42.30
2018-12-31T20:11:15.771Z,155.03
2018-12-31T20:13:45.070Z,52.93
2018-12-31T20:16:14.411Z,30.77
2018-12-31T20:18:43.672Z,64.33
2018-12-31T20:21:12.912Z,50.47
2018-12-31T20:23:42.321Z,60.63
2018-12-31T20:26:11.799Z,43.10
2018-12-31T20:28:41.100Z,35.63
2018-12-31T20:31:10.440Z,23.73
2018-12-31T20:33:39.791Z,54.07
2018-12-31T20:36:09.145Z,53.07
2018-12-31T20:38:38.836Z,24.27
2018-12-31T20:41:08.153Z,53.67
2018-12-31T20:43:37.443Z,30.60
2018-12-31T20:46:06.799Z,26.93
2018-12-31T20:48:36.193Z,25.57
2018-12-31T20:51:05.459Z,170.73
2018-12-31T20:53:34.681Z,60.87
2018-12-31T20:56:03.947Z,113.43
2018-12-31T20:58:34.836Z,28.43
2018-12-31T21:01:04.212Z,98.33
2018-12-31T21:03:33.556Z,36.87
2018-12-31T21:06:02.781Z,265.23
2018-12-31T21:08:32.072Z,444.93
2018-12-31T21:11:01.495Z,155.10
2018-12-31T21:13:30.790Z,63.40
2018-12-31T21:16:00.184Z,78.20
2018-12-31T21:18:29.533Z,40.27
2018-12-31T21:20:58.925Z,37.73
2018-12-31T21:23:28.205Z,29.93
2018-12-31T21:25:58.583Z,36.57
2018-12-31T21:28:28.034Z,35.90
2018-12-31T21:30:57.536Z,43.00
2018-12-31T21:33:26.860Z,35.40
2018-12-31T21:35:56.265Z,40.53
2018-12-31T21:38:25.568Z,64.13
2018-12-31T21:40:54.954Z,39.17
2018-12-31T21:43:24.433Z,42.50
2018-12-31T21:45:53.603Z,50.13
2018-12-31T21:48:22.903Z,34.33
2018-12-31T21:50:52.163Z,48.43
2018-12-31T21:53:21.459Z,98.53
2018-12-31T21:55:51.172Z,44.27
2018-12-31T21:58:20.513Z,37.70
2018-12-31T22:00:49.819Z,85.70
2018-12-31T22:03:19.069Z,95.07
2018-12-31T22:05:48.475Z,65.17
2018-12-31T22:08:18.079Z,543.90
2018-12-31T22:10:47.410Z,44.50
2018-12-31T22:13:16.703Z,51.90
2018-12-31T22:15:46.022Z,50.87
2018-12-31T22:18:15.306Z,25.27
2018-12-31T22:20:44.867Z,27.10
2018-12-31T22:23:14.215Z,32.23
2018-12-31T22:25:43.449Z,34.17
2018-12-31T22:28:12.665Z,38.27
2018-12-31T22:30:41.945Z,48.43
2018-12-31T22:33:11.273Z,37.70
2018-12-31T22:35:40.536Z,106.83
2018-12-31T22:38:09.971Z,102.73
2018-12-31T22:40:39.207Z,29.80
2018-12-31T22:43:09.458Z,33.03
2018-12-31T22:45:38.894Z,33.83
2018-12-31T22:48:08.163Z,38.33
2018-12-31T22:50:37.450Z,32.07
2018-12-31T22:53:06.708Z,31.50
2018-12-31T22:55:35.937Z,59.53
2018-12-31T22:58:05.533Z,37.97
2018-12-31T23:00:36.708Z,85.03
2018-12-31T23:03:06.129Z,441.53
2018-12-31T23:05:37.347Z,446.80
2018-12-31T23:08:06.699Z,479.43
2018-12-31T23:10:36.188Z,999.90
2018-12-31T23:13:05.536Z,607.13
2018-12-31T23:15:36.799Z,393.83
2018-12-31T23:18:06.270Z,373.00
2018-12-31T23:20:35.625Z,272.00
2018-12-31T23:23:04.967Z,253.63
2018-12-31T23:25:34.206Z,183.37
2018-12-31T23:28:03.500Z,188.10
2018-12-31T23:30:32.862Z,161.80
2018-12-31T23:33:02.120Z,268.60
2018-12-31T23:35:31.610Z,111.70
2018-12-31T23:38:00.786Z,112.83
2018-12-31T23:40:30.085Z,80.83
2018-12-31T23:43:06.130Z,75.60
2018-12-31T23:45:30.351Z,62.47
2018-12-31T23:47:59.599Z,47.07
2018-12-31T23:50:28.836Z,55.63
2018-12-31T23:52:58.040Z,72.50
2018-12-31T23:55:27.443Z,46.77
2018-12-31T23:57:56.810Z,43.30
